Lincoln, North Dakota
Current Conditions -  °F | °C
As of 9:52 PM on Thursday 18 Dec 2014 (Local Time) from KBIS Reporting Station
Overcast Overcast  
Wind Chill: 23°   Ceiling: 1400
Heat Index: 28°   Visibility: 8mi
Dew Point: 26°   Wind: 5mph
Humidity: 92%   Direction: 170°S
Pressure: 30.01"   Gusts: NA
Location:  46.7287°N, 100.616°W
Report Text: KBIS 190352Z 17004KT 8SM OVC014 M02/M03 A3001 RMK AO2 SLP187 T10221033
Loading
Personal Weather Stations






























Interactive Weather Map New forecast layout! Learn more

10-Day Weather Forecast

Advertisements
Track Severe Weather on mobile